Terminal Aerodrome Forecast
Issued by NWS

Home | Current Version | Previous Version | Graphics & Text | Print | Product List | Glossary On
Versions: 1 2 3 4 5 6 7 8 9 10 11 12 13 14 15 16 17 18 19 20 21 22 23 24 25 26 27 28 29 30 31 32 33 34
993
FTUS43 KGRB 020535
TAFRHI
TAF
KRHI 020535Z 0206/0306 32008KT P6SM SCT015 BKN022
      TEMPO 0206/0210 5SM -SN BKN018
     FM021000 31006KT P6SM OVC018
     FM030200 VRB03KT P6SM OVC015=

USA.gov is the U.S. government's official web portal to all federal, state and local government web resources and services.